Jiddah, Saudi Arabia
Current Conditions -  °F | °C
As of 12:00 AM on Tuesday 25 Nov 2014 (Local Time) from OEJN Reporting Station
Scattered Clouds Scattered Clouds  
Wind Chill: 75°   Ceiling: Unl
Heat Index: 75°   Visibility: 6mi
Dew Point: 64°   Wind: 12mph
Humidity: 69%   Direction: 10°N
Pressure: 29.88"   Gusts: NA
Location:  21.5°N, 39.17°E
Report Text: OEJN 242100Z 01010KT 9999 SCT040 24/18 Q1012 NOSIG
Loading
Personal Weather Stations






























Interactive Weather Map New forecast layout! Learn more

10-Day Weather Forecast

Advertisements
Track Severe Weather on mobile